createdAt,value
2022-11-28T00:01:56.498Z,6.12
2022-11-28T00:07:00.674Z,6.12
2022-11-28T00:12:03.612Z,6.08
2022-11-28T00:17:06.330Z,6.11
2022-11-28T00:22:10.400Z,6.15
2022-11-28T00:27:13.150Z,6.13
2022-11-28T00:32:16.090Z,6.15
2022-11-28T00:37:20.292Z,6.14
2022-11-28T00:42:23.158Z,6.18
2022-11-28T00:47:25.872Z,6.15
2022-11-28T00:52:29.951Z,6.16
2022-11-28T00:57:32.668Z,6.16
2022-11-28T01:02:35.510Z,6.24
2022-11-28T01:07:42.369Z,6.29
2022-11-28T01:12:45.211Z,6.31
2022-11-28T01:17:47.923Z,6.28
2022-11-28T01:22:52.027Z,6.27
2022-11-28T01:27:54.751Z,6.34
2022-11-28T01:32:57.481Z,6.34
2022-11-28T01:38:01.601Z,6.30
2022-11-28T01:43:04.410Z,6.35
2022-11-28T01:48:08.778Z,6.46
2022-11-28T01:53:13.857Z,6.55
2022-11-28T01:58:16.971Z,6.57
2022-11-28T02:03:22.787Z,6.57
2022-11-28T02:08:26.881Z,6.53
2022-11-28T02:13:38.139Z,6.60
2022-11-28T02:18:53.309Z,6.57
2022-11-28T02:24:21.284Z,6.54
2022-11-28T02:29:39.998Z,6.54
2022-11-28T02:34:52.115Z,6.49
2022-11-28T02:40:02.051Z,6.55
2022-11-28T02:45:10.409Z,6.58
2022-11-28T02:50:19.238Z,6.54
2022-11-28T02:55:22.068Z,6.43
2022-11-28T03:00:28.777Z,6.39
2022-11-28T03:05:38.827Z,6.36
2022-11-28T03:10:46.542Z,6.33
2022-11-28T03:16:03.286Z,6.33
2022-11-28T03:21:11.649Z,6.33
2022-11-28T03:26:18.703Z,6.32
2022-11-28T03:31:23.735Z,6.32
2022-11-28T03:36:30.025Z,6.27
2022-11-28T03:41:33.014Z,6.26
2022-11-28T03:46:38.298Z,6.29
2022-11-28T03:51:45.274Z,6.30
2022-11-28T03:56:53.028Z,6.26
2022-11-28T04:02:03.516Z,6.26
2022-11-28T04:07:16.433Z,6.22
2022-11-28T04:12:22.810Z,6.20
2022-11-28T04:17:28.515Z,6.18
2022-11-28T04:22:34.843Z,6.14
2022-11-28T04:27:40.012Z,6.19
2022-11-28T04:32:47.336Z,6.18
2022-11-28T04:37:53.286Z,6.21
2022-11-28T04:42:57.575Z,6.20
2022-11-28T04:48:00.654Z,6.18
2022-11-28T04:53:07.301Z,6.14
2022-11-28T04:58:12.816Z,6.15
2022-11-28T05:03:15.641Z,6.11
2022-11-28T05:08:20.288Z,6.13
2022-11-28T05:13:23.046Z,6.07
2022-11-28T05:18:25.731Z,6.09
2022-11-28T05:23:29.824Z,5.99
2022-11-28T05:28:32.532Z,5.99
2022-11-28T05:33:35.245Z,6.01
2022-11-28T05:38:39.499Z,6.02
2022-11-28T05:43:42.219Z,5.99
2022-11-28T05:48:45.198Z,5.97
2022-11-28T05:53:49.327Z,5.99
2022-11-28T05:58:53.488Z,5.90
2022-11-28T06:04:00.650Z,6.00
2022-11-28T06:09:05.989Z,5.94
2022-11-28T06:14:21.086Z,5.93
2022-11-28T06:19:27.397Z,5.93
2022-11-28T06:24:33.951Z,5.95
2022-11-28T06:29:36.649Z,5.97
2022-11-28T06:34:40.420Z,6.03
2022-11-28T06:39:45.068Z,5.93
2022-11-28T06:44:47.904Z,5.97
2022-11-28T06:49:50.697Z,5.99
2022-11-28T06:54:55.087Z,5.95
2022-11-28T06:59:57.795Z,5.94
2022-11-28T07:05:00.538Z,5.93
2022-11-28T07:10:05.342Z,5.94
2022-11-28T07:15:08.584Z,5.94
2022-11-28T07:20:12.412Z,5.90
2022-11-28T07:25:16.585Z,5.98
2022-11-28T07:30:20.012Z,5.94
2022-11-28T07:35:22.781Z,5.95
2022-11-28T07:40:26.896Z,7.28
2022-11-28T07:45:47.317Z,6.50
2022-11-28T07:50:52.329Z,7.42
2022-11-28T07:55:56.425Z,7.24
2022-11-28T08:00:59.396Z,7.56
2022-11-28T08:06:03.285Z,6.33
2022-11-28T08:11:08.832Z,6.16
2022-11-28T08:16:14.856Z,6.19
2022-11-28T08:21:19.619Z,6.17
2022-11-28T08:26:28.979Z,6.13
2022-11-28T08:31:35.244Z,6.13
2022-11-28T08:36:38.304Z,6.16
2022-11-28T08:41:42.760Z,6.07
2022-11-28T08:46:45.556Z,6.15
2022-11-28T08:51:48.274Z,6.17
2022-11-28T08:56:52.394Z,6.21
2022-11-28T09:01:55.407Z,6.33
2022-11-28T09:06:58.139Z,6.22
2022-11-28T09:12:02.202Z,6.24
2022-11-28T09:17:05.487Z,6.27
2022-11-28T09:22:08.476Z,6.19
2022-11-28T09:27:12.618Z,6.20
2022-11-28T09:32:15.496Z,6.25
2022-11-28T09:37:18.298Z,6.26
2022-11-28T09:42:29.273Z,6.40
2022-11-28T09:47:33.916Z,6.38
2022-11-28T09:52:41.140Z,6.39
2022-11-28T09:57:48.249Z,6.46
2022-11-28T10:03:10.544Z,6.45
2022-11-28T10:08:24.429Z,6.57
2022-11-28T10:13:53.600Z,6.57
2022-11-28T10:19:01.013Z,6.60
2022-11-28T10:24:06.262Z,6.58
2022-11-28T10:29:21.237Z,6.56
2022-11-28T10:34:28.320Z,6.60
2022-11-28T10:39:31.063Z,6.60
2022-11-28T10:44:46.030Z,6.59
2022-11-28T10:49:55.171Z,6.60
2022-11-28T10:55:09.114Z,6.72
2022-11-28T11:00:15.118Z,6.72
2022-11-28T11:05:20.172Z,6.78
2022-11-28T11:10:27.025Z,6.83
2022-11-28T11:15:33.354Z,6.86
2022-11-28T11:20:38.106Z,6.84
2022-11-28T11:25:48.668Z,6.85
2022-11-28T11:31:00.033Z,6.90
2022-11-28T11:36:05.259Z,6.93
2022-11-28T11:41:25.961Z,6.87
2022-11-28T11:46:30.118Z,6.82
2022-11-28T11:51:39.100Z,6.90
2022-11-28T11:56:44.515Z,6.95
2022-11-28T12:01:50.919Z,6.91
2022-11-28T12:06:55.159Z,6.93
2022-11-28T12:12:00.751Z,6.97
2022-11-28T12:17:46.675Z,6.97
2022-11-28T12:22:48.516Z,6.97
2022-11-28T12:28:02.058Z,7.02
2022-11-28T12:33:15.527Z,7.07
2022-11-28T12:38:27.377Z,7.11
2022-11-28T12:43:41.320Z,7.16
2022-11-28T12:48:55.177Z,7.16
2022-11-28T12:54:07.472Z,7.21
2022-11-28T12:59:18.990Z,7.26
2022-11-28T13:04:42.433Z,7.29
2022-11-28T13:09:55.226Z,7.24
2022-11-28T13:14:59.791Z,7.27
2022-11-28T13:20:09.938Z,7.27
2022-11-28T13:25:20.428Z,7.26
2022-11-28T13:30:24.790Z,7.34
2022-11-28T13:35:29.350Z,7.27
2022-11-28T13:40:35.875Z,7.29
2022-11-28T13:45:41.547Z,7.25
2022-11-28T13:51:00.311Z,7.28
2022-11-28T13:56:23.513Z,7.28
2022-11-28T14:01:27.449Z,7.27
2022-11-28T14:06:33.456Z,7.31
2022-11-28T14:11:44.092Z,7.30
2022-11-28T14:16:58.019Z,7.35
2022-11-28T14:22:13.812Z,7.26
2022-11-28T14:27:20.400Z,7.22
2022-11-28T14:32:35.824Z,7.21
2022-11-28T14:37:59.460Z,7.27
2022-11-28T14:43:26.803Z,7.23
2022-11-28T14:48:30.954Z,7.21
2022-11-28T14:53:44.399Z,7.23
2022-11-28T14:58:48.616Z,7.16
2022-11-28T15:03:56.108Z,7.18
2022-11-28T15:09:07.047Z,7.15
2022-11-28T15:14:18.717Z,7.09
2022-11-28T15:19:25.047Z,7.05
2022-11-28T15:24:31.407Z,7.04
2022-11-28T15:29:34.128Z,7.06
2022-11-28T15:34:38.055Z,7.04
2022-11-28T15:39:42.534Z,7.04
2022-11-28T15:44:45.523Z,7.00
2022-11-28T15:49:59.440Z,7.03
2022-11-28T15:55:15.720Z,6.99
2022-11-28T16:00:20.660Z,6.93
2022-11-28T16:05:23.656Z,6.98
2022-11-28T16:10:31.707Z,6.96
2022-11-28T16:15:34.481Z,6.97
2022-11-28T16:20:38.916Z,6.96
2022-11-28T16:25:43.303Z,6.92
2022-11-28T16:30:51.139Z,6.96
2022-11-28T16:35:53.962Z,6.93
2022-11-28T16:41:02.016Z,6.92
2022-11-28T16:46:06.982Z,6.92
2022-11-28T16:51:37.778Z,6.91
2022-11-28T16:56:45.346Z,6.90
2022-11-28T17:01:49.665Z,6.90
2022-11-28T17:06:53.635Z,6.83
2022-11-28T17:12:03.450Z,6.86
2022-11-28T17:17:12.732Z,6.89
2022-11-28T17:22:17.888Z,6.82
2022-11-28T17:27:21.974Z,6.83
2022-11-28T17:32:26.009Z,6.76
2022-11-28T17:37:28.809Z,6.76
2022-11-28T17:42:32.926Z,6.77
2022-11-28T17:47:35.669Z,6.75
2022-11-28T17:52:38.503Z,6.76
2022-11-28T17:57:42.629Z,6.76
2022-11-28T18:02:45.580Z,6.74
2022-11-28T18:07:48.363Z,6.73
2022-11-28T18:12:52.773Z,6.74
2022-11-28T18:17:55.525Z,6.77
2022-11-28T18:22:58.845Z,6.74
2022-11-28T18:28:03.201Z,6.72
2022-11-28T18:33:05.975Z,6.73
2022-11-28T18:38:10.704Z,6.69
2022-11-28T18:43:17.064Z,6.71
2022-11-28T18:48:19.648Z,6.70
2022-11-28T18:53:25.453Z,6.68
2022-11-28T18:58:30.599Z,6.73
2022-11-28T19:03:33.359Z,6.66
2022-11-28T19:08:36.524Z,6.68
2022-11-28T19:13:40.918Z,6.65
2022-11-28T19:18:44.481Z,6.64
2022-11-28T19:23:48.083Z,6.69
2022-11-28T19:28:52.503Z,6.70
2022-11-28T19:34:00.930Z,6.68
2022-11-28T19:39:07.538Z,6.68
2022-11-28T19:44:12.446Z,6.70
2022-11-28T19:49:18.235Z,6.69
2022-11-28T19:54:21.502Z,6.64
2022-11-28T19:59:27.213Z,6.70
2022-11-28T20:04:30.190Z,6.73
2022-11-28T20:09:33.184Z,6.76
2022-11-28T20:14:37.534Z,6.73
2022-11-28T20:19:40.278Z,6.78
2022-11-28T20:24:43.098Z,6.75
2022-11-28T20:29:47.334Z,6.74
2022-11-28T20:34:50.654Z,6.73
2022-11-28T20:39:53.557Z,6.75
2022-11-28T20:44:57.668Z,6.77
2022-11-28T20:50:00.425Z,6.77
2022-11-28T20:55:03.230Z,6.75
2022-11-28T21:00:10.176Z,6.72
2022-11-28T21:05:13.064Z,6.76
2022-11-28T21:10:15.964Z,6.74
2022-11-28T21:15:20.125Z,6.80
2022-11-28T21:20:26.453Z,6.74
2022-11-28T21:25:29.002Z,6.79
2022-11-28T21:30:33.462Z,6.75
2022-11-28T21:35:37.007Z,6.78
2022-11-28T21:40:39.807Z,6.75
2022-11-28T21:45:43.999Z,6.79
2022-11-28T21:50:47.496Z,6.82
2022-11-28T21:55:50.285Z,6.81
2022-11-28T22:00:58.560Z,6.83
2022-11-28T22:06:03.152Z,6.83
2022-11-28T22:11:08.537Z,6.83
2022-11-28T22:16:16.587Z,6.86
2022-11-28T22:26:44.065Z,6.88
2022-11-28T22:31:48.939Z,6.92
2022-11-28T22:36:51.749Z,6.93
2022-11-28T22:41:57.183Z,6.90
2022-11-28T22:47:01.334Z,6.90
2022-11-28T22:52:05.468Z,6.88
2022-11-28T22:57:08.315Z,6.91
2022-11-28T23:02:12.531Z,6.91
2022-11-28T23:07:15.775Z,6.91
2022-11-28T23:12:18.554Z,6.88
2022-11-28T23:17:22.661Z,6.93
2022-11-28T23:22:25.383Z,6.93
2022-11-28T23:27:29.305Z,6.90
2022-11-28T23:32:33.345Z,6.91
2022-11-28T23:37:38.794Z,6.92
2022-11-28T23:42:41.688Z,6.88
2022-11-28T23:47:45.758Z,6.89
2022-11-28T23:52:48.473Z,6.93
2022-11-28T23:57:51.175Z,6.94
